createdAt,value
2023-05-06T00:00:18.273Z,58.60
2023-05-06T00:05:20.496Z,58.50
2023-05-06T00:10:22.717Z,58.70
2023-05-06T00:15:24.869Z,58.70
2023-05-06T00:20:27.942Z,58.60
2023-05-06T00:25:30.104Z,58.60
2023-05-06T00:30:32.375Z,58.60
2023-05-06T00:35:34.672Z,58.60
2023-05-06T00:40:36.998Z,58.40
2023-05-06T00:45:39.603Z,58.70
2023-05-06T00:50:42.269Z,58.60
2023-05-06T00:55:44.595Z,58.30
2023-05-06T01:00:46.972Z,58.50
2023-05-06T01:11:19.805Z,58.70
2023-05-06T01:16:25.511Z,58.80
2023-05-06T01:21:34.768Z,58.60
2023-05-06T01:26:37.784Z,58.70
2023-05-06T01:31:48.779Z,58.30
2023-05-06T01:37:07.139Z,58.60
2023-05-06T01:42:10.333Z,58.70
2023-05-06T01:47:14.096Z,58.40
2023-05-06T01:52:16.694Z,58.70
2023-05-06T01:57:20.001Z,58.70
2023-05-06T02:02:22.455Z,58.50
2023-05-06T02:07:24.815Z,58.80
2023-05-06T02:12:27.102Z,58.90
2023-05-06T02:17:29.351Z,59.00
2023-05-06T02:22:32.301Z,59.10
2023-05-06T02:27:35.001Z,59.40
2023-05-06T02:32:38.136Z,59.30
2023-05-06T02:37:40.385Z,59.40
2023-05-06T02:42:42.618Z,59.50
2023-05-06T02:47:44.985Z,59.40
2023-05-06T02:52:47.293Z,59.60
2023-05-06T02:57:49.497Z,59.80
2023-05-06T03:02:51.903Z,59.80
2023-05-06T03:07:54.200Z,59.70
2023-05-06T03:12:56.984Z,59.90
2023-05-06T03:17:59.376Z,60.10
2023-05-06T03:23:02.472Z,59.90
2023-05-06T03:28:06.984Z,60.30
2023-05-06T03:33:12.317Z,60.50
2023-05-06T03:38:14.950Z,60.50
2023-05-06T03:43:24.221Z,60.50
2023-05-06T03:48:31.397Z,60.90
2023-05-06T03:53:33.764Z,61.30
2023-05-06T03:58:36.928Z,61.50
2023-05-06T04:03:41.477Z,61.50
2023-05-06T04:08:44.368Z,62.50
2023-05-06T04:13:47.080Z,62.00
2023-05-06T04:18:53.357Z,62.00
2023-05-06T04:23:55.964Z,62.30
2023-05-06T04:29:07.158Z,62.60
2023-05-06T04:34:16.691Z,62.30
2023-05-06T04:39:20.381Z,62.30
2023-05-06T04:44:24.681Z,62.70
2023-05-06T04:49:28.184Z,62.50
2023-05-06T04:54:31.215Z,62.90
2023-05-06T04:59:33.544Z,62.80
2023-05-06T05:04:37.704Z,63.00
2023-05-06T05:09:39.998Z,63.20
2023-05-06T05:14:42.930Z,63.20
2023-05-06T05:19:47.379Z,63.20
2023-05-06T05:24:51.618Z,63.60
2023-05-06T05:29:54.480Z,62.60
2023-05-06T05:34:57.990Z,63.40
2023-05-06T05:40:00.552Z,62.70
2023-05-06T05:45:03.022Z,62.90
2023-05-06T05:50:07.345Z,63.00
2023-05-06T05:55:11.272Z,62.70
2023-05-06T06:00:15.299Z,62.70
2023-05-06T06:05:30.577Z,62.40
2023-05-06T06:10:33.187Z,62.60
2023-05-06T06:15:39.187Z,62.30
2023-05-06T06:20:41.393Z,62.70
2023-05-06T06:25:44.921Z,61.50
2023-05-06T06:30:47.977Z,62.10
2023-05-06T06:35:50.264Z,62.00
2023-05-06T06:40:52.816Z,63.90
2023-05-06T06:45:55.009Z,62.70
2023-05-06T06:50:57.274Z,64.90
2023-05-06T06:55:59.514Z,62.70
2023-05-06T07:01:01.756Z,61.30
2023-05-06T07:06:04.133Z,66.00
2023-05-06T07:11:06.368Z,63.20
2023-05-06T07:16:08.572Z,62.80
2023-05-06T07:21:10.796Z,59.70
2023-05-06T07:26:13.019Z,56.50
2023-05-06T07:31:16.464Z,55.20
2023-05-06T07:36:18.661Z,56.20
2023-05-06T07:41:23.738Z,56.50
2023-05-06T07:46:26.302Z,56.00
2023-05-06T07:51:28.670Z,56.20
2023-05-06T07:56:31.452Z,55.40
2023-05-06T08:01:33.771Z,55.70
2023-05-06T08:06:36.093Z,55.60
2023-05-06T08:11:39.023Z,56.10
2023-05-06T08:16:41.336Z,56.40
2023-05-06T08:21:43.693Z,55.50
2023-05-06T08:26:45.975Z,55.60
2023-05-06T08:31:48.456Z,55.50
2023-05-06T08:36:50.894Z,55.30
2023-05-06T08:41:56.401Z,55.30
2023-05-06T08:46:59.285Z,55.40
2023-05-06T08:52:05.781Z,54.70
2023-05-06T08:57:12.544Z,54.40
2023-05-06T09:02:15.462Z,54.50
2023-05-06T09:07:18.670Z,53.80
2023-05-06T09:12:20.951Z,54.30
2023-05-06T09:17:24.585Z,53.70
2023-05-06T09:22:28.713Z,54.70
2023-05-06T09:27:34.115Z,55.20
2023-05-06T09:32:39.805Z,55.80
2023-05-06T09:37:42.323Z,54.60
2023-05-06T09:42:45.458Z,55.30
2023-05-06T09:47:49.693Z,55.30
2023-05-06T09:52:52.267Z,55.90
2023-05-06T09:57:55.569Z,55.90
2023-05-06T10:02:59.487Z,56.20
2023-05-06T10:08:02.309Z,56.40
2023-05-06T10:13:04.721Z,56.10
2023-05-06T10:18:08.520Z,56.00
2023-05-06T10:28:24.652Z,56.70
2023-05-06T10:33:34.199Z,56.50
2023-05-06T10:38:41.611Z,55.60
2023-05-06T10:43:45.148Z,55.10
2023-05-06T10:59:31.537Z,55.70
2023-05-06T11:04:34.108Z,57.00
2023-05-06T11:09:55.390Z,56.60
2023-05-06T11:15:21.635Z,56.80
2023-05-06T11:20:25.798Z,56.10
2023-05-06T11:25:43.871Z,56.20
2023-05-06T11:30:55.234Z,56.00
2023-05-06T11:35:57.670Z,56.70
2023-05-06T11:41:01.207Z,56.80
2023-05-06T11:46:06.512Z,57.20
2023-05-06T11:51:08.773Z,56.50
2023-05-06T11:56:11.033Z,57.10
2023-05-06T12:01:13.296Z,56.60
2023-05-06T12:06:15.540Z,56.70
2023-05-06T12:11:17.850Z,56.20
2023-05-06T12:16:20.297Z,56.60
2023-05-06T12:21:24.608Z,56.50
2023-05-06T12:26:28.191Z,56.70
2023-05-06T12:31:30.490Z,56.70
2023-05-06T12:36:33.259Z,57.00
2023-05-06T12:41:38.293Z,57.30
2023-05-06T12:46:51.610Z,56.80
2023-05-06T12:52:10.571Z,57.20
2023-05-06T12:57:12.929Z,57.20
2023-05-06T13:02:15.696Z,57.30
2023-05-06T13:07:17.974Z,56.60
2023-05-06T13:12:20.210Z,57.20
2023-05-06T13:17:23.253Z,57.30
2023-05-06T13:22:25.455Z,56.30
2023-05-06T13:27:31.614Z,56.50
2023-05-06T13:32:33.835Z,56.50
2023-05-06T13:37:36.180Z,56.80
2023-05-06T13:42:38.869Z,56.90
2023-05-06T13:47:43.059Z,57.00
2023-05-06T13:52:45.318Z,57.40
2023-05-06T13:57:47.595Z,57.60
2023-05-06T14:02:49.870Z,57.80
2023-05-06T14:07:52.681Z,56.90
2023-05-06T14:12:54.988Z,56.80
2023-05-06T14:17:58.038Z,56.30
2023-05-06T14:23:00.413Z,56.70
2023-05-06T14:28:02.647Z,57.10
2023-05-06T14:33:05.600Z,56.80
2023-05-06T14:38:08.052Z,56.60
2023-05-06T14:43:10.277Z,57.10
2023-05-06T14:48:12.576Z,57.30
2023-05-06T14:53:14.844Z,57.40
2023-05-06T14:58:17.790Z,57.30
2023-05-06T15:03:20.025Z,57.70
2023-05-06T15:08:23.009Z,57.30
2023-05-06T15:13:25.512Z,57.30
2023-05-06T15:18:27.709Z,57.10
2023-05-06T15:23:30.041Z,57.20
2023-05-06T15:28:32.245Z,57.00
2023-05-06T15:33:34.458Z,57.20
2023-05-06T15:54:13.259Z,57.50
2023-05-06T15:59:15.891Z,57.60
2023-05-06T16:04:18.181Z,58.00
2023-05-06T16:09:20.728Z,57.80
2023-05-06T16:14:23.208Z,57.60
2023-05-06T16:19:26.115Z,57.80
2023-05-06T16:24:28.392Z,58.10
2023-05-06T16:29:30.616Z,57.90
2023-05-06T16:34:32.855Z,58.10
2023-05-06T16:39:35.082Z,57.90
2023-05-06T16:44:37.327Z,58.30
2023-05-06T16:49:39.620Z,57.80
2023-05-06T16:54:42.062Z,57.90
2023-05-06T16:59:44.370Z,58.00
2023-05-06T17:04:46.793Z,58.30
2023-05-06T17:09:49.107Z,58.50
2023-05-06T17:14:51.352Z,58.30
2023-05-06T17:19:53.545Z,58.50
2023-05-06T17:24:56.180Z,58.80
2023-05-06T17:30:00.947Z,58.30
2023-05-06T17:35:03.308Z,58.50
2023-05-06T17:40:07.635Z,58.00
2023-05-06T17:45:11.007Z,58.20
2023-05-06T17:50:13.609Z,58.30
2023-05-06T17:55:17.448Z,58.10
2023-05-06T18:00:20.174Z,58.50
2023-05-06T18:05:24.680Z,58.20
2023-05-06T18:10:26.963Z,58.30
2023-05-06T18:15:29.223Z,57.90
2023-05-06T18:20:32.272Z,57.90
2023-05-06T18:25:34.479Z,57.90
2023-05-06T18:30:36.674Z,57.20
2023-05-06T18:35:39.043Z,57.20
2023-05-06T18:40:41.352Z,56.70
2023-05-06T18:45:43.657Z,57.00
2023-05-06T18:50:45.993Z,56.50
2023-05-06T18:55:48.205Z,56.60
2023-05-06T19:00:50.455Z,56.60
2023-05-06T19:05:52.688Z,56.70
2023-05-06T19:10:55.378Z,55.90
2023-05-06T19:15:58.019Z,55.90
2023-05-06T19:21:00.856Z,55.90
2023-05-06T19:26:04.341Z,55.80
2023-05-06T19:31:09.520Z,56.10
2023-05-06T19:36:12.022Z,55.60
2023-05-06T19:41:14.394Z,55.00
2023-05-06T19:46:17.035Z,55.00
2023-05-06T19:51:19.293Z,54.90
2023-05-06T19:56:21.667Z,54.70
2023-05-06T20:01:24.397Z,54.70
2023-05-06T20:06:26.663Z,54.90
2023-05-06T20:11:28.845Z,54.70
2023-05-06T20:16:31.210Z,54.30
2023-05-06T20:21:33.433Z,54.30
2023-05-06T20:26:35.950Z,54.20
2023-05-06T20:31:38.345Z,54.10
2023-05-06T20:36:41.120Z,54.10
2023-05-06T20:41:43.354Z,53.80
2023-05-06T20:46:45.719Z,53.40
2023-05-06T20:51:48.028Z,53.30
2023-05-06T20:56:50.333Z,53.30
2023-05-06T21:01:54.019Z,53.50
2023-05-06T21:06:57.562Z,51.90
2023-05-06T21:11:59.909Z,51.90
2023-05-06T21:17:02.171Z,52.80
2023-05-06T21:22:04.451Z,52.80
2023-05-06T21:27:06.667Z,52.10
2023-05-06T21:32:09.161Z,51.90
2023-05-06T21:37:11.701Z,52.60
2023-05-06T21:42:13.920Z,51.30
2023-05-06T21:47:16.154Z,52.40
2023-05-06T21:52:18.354Z,52.60
2023-05-06T21:57:20.595Z,52.00
2023-05-06T22:02:23.104Z,52.00
2023-05-06T22:07:25.416Z,51.70
2023-05-06T22:12:27.712Z,52.20
2023-05-06T22:17:30.817Z,51.90
2023-05-06T22:22:33.055Z,51.50
2023-05-06T22:27:35.337Z,51.60
2023-05-06T22:32:38.018Z,51.40
2023-05-06T22:37:40.247Z,51.70
2023-05-06T22:42:42.457Z,50.80
2023-05-06T22:47:44.713Z,51.60
2023-05-06T22:52:47.011Z,51.30
2023-05-06T22:57:50.272Z,51.00
2023-05-06T23:02:52.706Z,51.40
2023-05-06T23:07:54.942Z,51.80
2023-05-06T23:13:01.454Z,51.80
2023-05-06T23:18:04.224Z,51.60
2023-05-06T23:23:10.621Z,51.80
2023-05-06T23:28:12.854Z,51.50
2023-05-06T23:33:15.125Z,51.70
2023-05-06T23:38:17.418Z,51.60
2023-05-06T23:43:19.639Z,51.90
2023-05-06T23:48:21.840Z,51.90
2023-05-06T23:53:24.078Z,52.20
2023-05-06T23:58:26.314Z,52.20
